sensor_id;sensor_type;location;lat;lon;timestamp;temperature;humidity
28524;DHT22;15734;50.904;6.922;2022-11-15T00:01:40;10.20;99.90
28524;DHT22;15734;50.904;6.922;2022-11-15T00:04:06;10.20;99.90
28524;DHT22;15734;50.904;6.922;2022-11-15T00:06:32;10.20;99.90
28524;DHT22;15734;50.904;6.922;2022-11-15T00:08:58;10.20;99.90
28524;DHT22;15734;50.904;6.922;2022-11-15T00:11:24;10.20;99.90
28524;DHT22;15734;50.904;6.922;2022-11-15T00:13:50;10.20;99.90
28524;DHT22;15734;50.904;6.922;2022-11-15T00:16:15;10.30;99.90
28524;DHT22;15734;50.904;6.922;2022-11-15T00:18:41;10.30;99.90
28524;DHT22;15734;50.904;6.922;2022-11-15T00:21:10;10.40;99.90
28524;DHT22;15734;50.904;6.922;2022-11-15T00:23:36;10.40;99.90
28524;DHT22;15734;50.904;6.922;2022-11-15T00:26:02;10.40;99.90
28524;DHT22;15734;50.904;6.922;2022-11-15T00:28:28;10.40;99.90
28524;DHT22;15734;50.904;6.922;2022-11-15T00:31:00;10.40;99.90
28524;DHT22;15734;50.904;6.922;2022-11-15T00:33:25;10.50;99.90
28524;DHT22;15734;50.904;6.922;2022-11-15T00:35:51;10.50;99.90
28524;DHT22;15734;50.904;6.922;2022-11-15T00:38:16;10.50;99.90
28524;DHT22;15734;50.904;6.922;2022-11-15T00:40:42;10.50;99.90
28524;DHT22;15734;50.904;6.922;2022-11-15T00:43:07;10.50;99.90
28524;DHT22;15734;50.904;6.922;2022-11-15T00:45:33;10.50;99.90
28524;DHT22;15734;50.904;6.922;2022-11-15T00:47:59;10.60;99.90
28524;DHT22;15734;50.904;6.922;2022-11-15T00:50:24;10.70;99.90
28524;DHT22;15734;50.904;6.922;2022-11-15T00:52:50;10.60;99.90
28524;DHT22;15734;50.904;6.922;2022-11-15T00:55:16;10.70;99.90
28524;DHT22;15734;50.904;6.922;2022-11-15T00:57:42;10.60;99.90
28524;DHT22;15734;50.904;6.922;2022-11-15T01:00:08;10.70;99.90
28524;DHT22;15734;50.904;6.922;2022-11-15T01:02:34;10.70;99.90
28524;DHT22;15734;50.904;6.922;2022-11-15T01:05:00;10.60;99.90
28524;DHT22;15734;50.904;6.922;2022-11-15T01:07:25;10.70;99.90
28524;DHT22;15734;50.904;6.922;2022-11-15T01:09:51;10.60;99.90
28524;DHT22;15734;50.904;6.922;2022-11-15T01:12:16;10.60;99.90
28524;DHT22;15734;50.904;6.922;2022-11-15T01:14:42;10.50;99.90
28524;DHT22;15734;50.904;6.922;2022-11-15T01:17:08;10.60;99.90
28524;DHT22;15734;50.904;6.922;2022-11-15T01:19:33;10.60;99.90
28524;DHT22;15734;50.904;6.922;2022-11-15T01:21:59;10.50;99.90
28524;DHT22;15734;50.904;6.922;2022-11-15T01:24:24;10.50;99.90
28524;DHT22;15734;50.904;6.922;2022-11-15T01:26:50;10.50;99.90
28524;DHT22;15734;50.904;6.922;2022-11-15T01:29:15;10.40;99.90
28524;DHT22;15734;50.904;6.922;2022-11-15T01:31:41;10.40;99.90
28524;DHT22;15734;50.904;6.922;2022-11-15T01:34:06;10.50;99.90
28524;DHT22;15734;50.904;6.922;2022-11-15T01:36:32;10.50;99.90
28524;DHT22;15734;50.904;6.922;2022-11-15T01:38:58;10.50;99.90
28524;DHT22;15734;50.904;6.922;2022-11-15T01:41:27;10.50;99.90
28524;DHT22;15734;50.904;6.922;2022-11-15T01:43:55;10.50;99.90
28524;DHT22;15734;50.904;6.922;2022-11-15T01:48:47;10.60;99.90
28524;DHT22;15734;50.904;6.922;2022-11-15T01:51:17;10.60;99.90
28524;DHT22;15734;50.904;6.922;2022-11-15T01:53:47;10.60;99.90
28524;DHT22;15734;50.904;6.922;2022-11-15T01:56:26;10.70;99.90
28524;DHT22;15734;50.904;6.922;2022-11-15T01:58:53;10.70;99.90
28524;DHT22;15734;50.904;6.922;2022-11-15T02:01:21;10.70;99.90
28524;DHT22;15734;50.904;6.922;2022-11-15T02:03:55;10.70;99.90
28524;DHT22;15734;50.904;6.922;2022-11-15T02:06:22;10.70;99.90
28524;DHT22;15734;50.904;6.922;2022-11-15T02:08:49;10.70;99.90
28524;DHT22;15734;50.904;6.922;2022-11-15T02:11:15;10.70;99.90
28524;DHT22;15734;50.904;6.922;2022-11-15T02:13:41;10.70;99.90
28524;DHT22;15734;50.904;6.922;2022-11-15T02:16:13;10.80;99.90
28524;DHT22;15734;50.904;6.922;2022-11-15T02:18:57;10.80;99.90
28524;DHT22;15734;50.904;6.922;2022-11-15T02:27:29;10.90;99.90
28524;DHT22;15734;50.904;6.922;2022-11-15T02:30:22;10.90;99.90
28524;DHT22;15734;50.904;6.922;2022-11-15T02:32:52;11.00;99.90
28524;DHT22;15734;50.904;6.922;2022-11-15T02:35:49;11.00;99.90
28524;DHT22;15734;50.904;6.922;2022-11-15T02:41:30;11.00;99.90
28524;DHT22;15734;50.904;6.922;2022-11-15T02:44:15;11.00;99.90
28524;DHT22;15734;50.904;6.922;2022-11-15T02:46:49;11.10;99.90
28524;DHT22;15734;50.904;6.922;2022-11-15T02:49:35;11.10;99.90
28524;DHT22;15734;50.904;6.922;2022-11-15T02:52:01;11.10;99.90
28524;DHT22;15734;50.904;6.922;2022-11-15T02:54:30;11.20;99.90
28524;DHT22;15734;50.904;6.922;2022-11-15T02:57:07;11.20;99.90
28524;DHT22;15734;50.904;6.922;2022-11-15T03:00:00;11.30;99.90
28524;DHT22;15734;50.904;6.922;2022-11-15T03:13:27;11.60;99.90
28524;DHT22;15734;50.904;6.922;2022-11-15T03:16:02;11.70;99.90
28524;DHT22;15734;50.904;6.922;2022-11-15T03:18:30;11.80;99.90
28524;DHT22;15734;50.904;6.922;2022-11-15T03:21:00;11.80;99.90
28524;DHT22;15734;50.904;6.922;2022-11-15T03:23:26;11.90;99.90
28524;DHT22;15734;50.904;6.922;2022-11-15T03:25:54;11.90;99.90
28524;DHT22;15734;50.904;6.922;2022-11-15T03:28:31;11.90;99.90
28524;DHT22;15734;50.904;6.922;2022-11-15T03:30:59;11.90;99.90
28524;DHT22;15734;50.904;6.922;2022-11-15T03:33:28;11.90;99.90
28524;DHT22;15734;50.904;6.922;2022-11-15T03:35:55;11.90;99.90
28524;DHT22;15734;50.904;6.922;2022-11-15T03:38:29;11.90;99.90
28524;DHT22;15734;50.904;6.922;2022-11-15T03:41:01;11.90;99.90
28524;DHT22;15734;50.904;6.922;2022-11-15T03:43:43;12.00;99.90
28524;DHT22;15734;50.904;6.922;2022-11-15T03:46:17;11.90;99.90
28524;DHT22;15734;50.904;6.922;2022-11-15T03:48:49;11.90;99.90
28524;DHT22;15734;50.904;6.922;2022-11-15T03:51:16;11.90;99.90
28524;DHT22;15734;50.904;6.922;2022-11-15T03:53:42;11.90;99.90
28524;DHT22;15734;50.904;6.922;2022-11-15T03:56:08;11.90;99.90
28524;DHT22;15734;50.904;6.922;2022-11-15T03:58:33;11.90;99.90
28524;DHT22;15734;50.904;6.922;2022-11-15T04:00:59;11.90;99.90
28524;DHT22;15734;50.904;6.922;2022-11-15T04:03:25;11.90;99.90
28524;DHT22;15734;50.904;6.922;2022-11-15T04:05:50;11.90;99.90
28524;DHT22;15734;50.904;6.922;2022-11-15T04:08:16;11.90;99.90
28524;DHT22;15734;50.904;6.922;2022-11-15T04:10:42;11.90;99.90
28524;DHT22;15734;50.904;6.922;2022-11-15T04:13:08;11.80;99.90
28524;DHT22;15734;50.904;6.922;2022-11-15T04:15:34;11.80;99.90
28524;DHT22;15734;50.904;6.922;2022-11-15T04:17:59;11.80;99.90
28524;DHT22;15734;50.904;6.922;2022-11-15T04:20:27;11.90;99.90
28524;DHT22;15734;50.904;6.922;2022-11-15T04:23:14;11.80;99.90
28524;DHT22;15734;50.904;6.922;2022-11-15T04:26:14;11.80;99.90
28524;DHT22;15734;50.904;6.922;2022-11-15T04:28:40;11.80;99.90
28524;DHT22;15734;50.904;6.922;2022-11-15T04:31:25;11.80;99.90
28524;DHT22;15734;50.904;6.922;2022-11-15T04:33:50;11.80;99.90
28524;DHT22;15734;50.904;6.922;2022-11-15T04:36:16;11.80;99.90
28524;DHT22;15734;50.904;6.922;2022-11-15T04:39:00;11.90;99.90
28524;DHT22;15734;50.904;6.922;2022-11-15T04:41:26;11.90;99.90
28524;DHT22;15734;50.904;6.922;2022-11-15T04:43:51;11.90;99.90
28524;DHT22;15734;50.904;6.922;2022-11-15T04:46:17;11.90;99.90
28524;DHT22;15734;50.904;6.922;2022-11-15T04:48:43;11.90;99.90
28524;DHT22;15734;50.904;6.922;2022-11-15T04:51:08;11.90;99.90
28524;DHT22;15734;50.904;6.922;2022-11-15T04:53:34;11.90;99.90
28524;DHT22;15734;50.904;6.922;2022-11-15T04:55:59;11.90;99.90
28524;DHT22;15734;50.904;6.922;2022-11-15T04:58:25;11.90;99.90
28524;DHT22;15734;50.904;6.922;2022-11-15T05:00:50;11.90;99.90
28524;DHT22;15734;50.904;6.922;2022-11-15T05:03:16;11.90;99.90
28524;DHT22;15734;50.904;6.922;2022-11-15T05:06:11;11.90;99.90
28524;DHT22;15734;50.904;6.922;2022-11-15T05:11:14;11.90;99.90
28524;DHT22;15734;50.904;6.922;2022-11-15T05:13:40;11.80;99.90
28524;DHT22;15734;50.904;6.922;2022-11-15T05:16:05;11.80;99.90
28524;DHT22;15734;50.904;6.922;2022-11-15T05:18:31;11.80;99.90
28524;DHT22;15734;50.904;6.922;2022-11-15T05:21:21;11.70;99.90
28524;DHT22;15734;50.904;6.922;2022-11-15T05:23:46;11.70;99.90
28524;DHT22;15734;50.904;6.922;2022-11-15T05:26:13;11.60;99.90
28524;DHT22;15734;50.904;6.922;2022-11-15T05:28:40;11.50;99.90
28524;DHT22;15734;50.904;6.922;2022-11-15T05:31:08;11.40;99.90
28524;DHT22;15734;50.904;6.922;2022-11-15T05:33:35;11.40;99.90
28524;DHT22;15734;50.904;6.922;2022-11-15T05:36:07;11.40;99.90
28524;DHT22;15734;50.904;6.922;2022-11-15T05:38:35;11.30;99.90
28524;DHT22;15734;50.904;6.922;2022-11-15T05:41:02;11.30;99.90
28524;DHT22;15734;50.904;6.922;2022-11-15T05:43:31;11.20;99.90
28524;DHT22;15734;50.904;6.922;2022-11-15T05:45:58;11.10;99.90
28524;DHT22;15734;50.904;6.922;2022-11-15T05:48:24;10.90;99.90
28524;DHT22;15734;50.904;6.922;2022-11-15T05:50:50;10.80;99.90
28524;DHT22;15734;50.904;6.922;2022-11-15T05:53:19;10.70;99.90
28524;DHT22;15734;50.904;6.922;2022-11-15T05:55:46;10.70;99.90
28524;DHT22;15734;50.904;6.922;2022-11-15T05:58:11;10.50;99.90
28524;DHT22;15734;50.904;6.922;2022-11-15T06:00:37;10.40;99.90
28524;DHT22;15734;50.904;6.922;2022-11-15T06:03:03;10.40;99.90
28524;DHT22;15734;50.904;6.922;2022-11-15T06:05:28;10.40;99.90
28524;DHT22;15734;50.904;6.922;2022-11-15T06:07:57;10.30;99.90
28524;DHT22;15734;50.904;6.922;2022-11-15T06:10:23;10.20;99.90
28524;DHT22;15734;50.904;6.922;2022-11-15T06:12:56;10.30;99.90
28524;DHT22;15734;50.904;6.922;2022-11-15T06:15:22;10.20;99.90
28524;DHT22;15734;50.904;6.922;2022-11-15T06:17:48;10.10;99.90
28524;DHT22;15734;50.904;6.922;2022-11-15T06:20:14;10.20;99.90
28524;DHT22;15734;50.904;6.922;2022-11-15T06:22:39;10.10;99.90
28524;DHT22;15734;50.904;6.922;2022-11-15T06:25:05;10.10;99.90
28524;DHT22;15734;50.904;6.922;2022-11-15T06:27:30;10.00;99.90
28524;DHT22;15734;50.904;6.922;2022-11-15T06:29:56;10.00;99.90
28524;DHT22;15734;50.904;6.922;2022-11-15T06:32:21;10.10;99.90
28524;DHT22;15734;50.904;6.922;2022-11-15T06:34:47;10.10;99.90
28524;DHT22;15734;50.904;6.922;2022-11-15T06:37:12;10.10;99.90
28524;DHT22;15734;50.904;6.922;2022-11-15T06:39:38;10.10;99.90
28524;DHT22;15734;50.904;6.922;2022-11-15T06:42:03;10.00;99.90
28524;DHT22;15734;50.904;6.922;2022-11-15T06:44:29;10.00;99.90
28524;DHT22;15734;50.904;6.922;2022-11-15T06:46:54;10.00;99.90
28524;DHT22;15734;50.904;6.922;2022-11-15T06:49:20;10.00;99.90
28524;DHT22;15734;50.904;6.922;2022-11-15T06:51:45;10.10;99.90
28524;DHT22;15734;50.904;6.922;2022-11-15T06:54:11;10.10;99.90
28524;DHT22;15734;50.904;6.922;2022-11-15T06:56:37;10.10;99.90
28524;DHT22;15734;50.904;6.922;2022-11-15T06:59:02;10.10;99.90
28524;DHT22;15734;50.904;6.922;2022-11-15T07:01:28;10.10;99.90
28524;DHT22;15734;50.904;6.922;2022-11-15T07:03:53;10.10;99.90
28524;DHT22;15734;50.904;6.922;2022-11-15T07:06:19;10.00;99.90
28524;DHT22;15734;50.904;6.922;2022-11-15T07:08:44;10.10;99.90
28524;DHT22;15734;50.904;6.922;2022-11-15T07:11:10;10.10;99.90
28524;DHT22;15734;50.904;6.922;2022-11-15T07:13:36;10.10;99.90
28524;DHT22;15734;50.904;6.922;2022-11-15T07:16:07;10.10;99.90
28524;DHT22;15734;50.904;6.922;2022-11-15T07:18:39;10.00;99.90
28524;DHT22;15734;50.904;6.922;2022-11-15T07:21:09;10.00;99.90
28524;DHT22;15734;50.904;6.922;2022-11-15T07:23:39;10.00;99.90
28524;DHT22;15734;50.904;6.922;2022-11-15T07:26:05;10.10;99.90
28524;DHT22;15734;50.904;6.922;2022-11-15T07:28:31;10.10;99.90
28524;DHT22;15734;50.904;6.922;2022-11-15T07:30:56;10.20;99.90
28524;DHT22;15734;50.904;6.922;2022-11-15T07:33:22;10.30;99.90
28524;DHT22;15734;50.904;6.922;2022-11-15T07:35:47;10.40;99.90
28524;DHT22;15734;50.904;6.922;2022-11-15T07:38:17;10.50;99.90
28524;DHT22;15734;50.904;6.922;2022-11-15T07:40:46;10.60;99.90
28524;DHT22;15734;50.904;6.922;2022-11-15T07:43:12;10.60;99.90
28524;DHT22;15734;50.904;6.922;2022-11-15T07:45:44;10.70;99.90
28524;DHT22;15734;50.904;6.922;2022-11-15T07:48:10;10.70;99.90
28524;DHT22;15734;50.904;6.922;2022-11-15T07:50:36;10.80;99.90
28524;DHT22;15734;50.904;6.922;2022-11-15T07:53:02;10.80;99.90
28524;DHT22;15734;50.904;6.922;2022-11-15T07:55:27;10.90;99.90
28524;DHT22;15734;50.904;6.922;2022-11-15T07:58:03;10.90;99.90
28524;DHT22;15734;50.904;6.922;2022-11-15T08:00:30;10.90;99.90
28524;DHT22;15734;50.904;6.922;2022-11-15T08:03:10;11.00;99.90
28524;DHT22;15734;50.904;6.922;2022-11-15T08:05:36;11.00;99.90
28524;DHT22;15734;50.904;6.922;2022-11-15T08:08:03;11.00;99.90
28524;DHT22;15734;50.904;6.922;2022-11-15T08:10:29;11.00;99.90
28524;DHT22;15734;50.904;6.922;2022-11-15T08:13:13;11.10;99.90
28524;DHT22;15734;50.904;6.922;2022-11-15T08:15:39;11.10;99.90
28524;DHT22;15734;50.904;6.922;2022-11-15T08:18:09;11.20;99.90
28524;DHT22;15734;50.904;6.922;2022-11-15T08:20:35;11.20;99.90
28524;DHT22;15734;50.904;6.922;2022-11-15T08:23:02;11.20;99.90
28524;DHT22;15734;50.904;6.922;2022-11-15T08:25:30;11.20;99.90
28524;DHT22;15734;50.904;6.922;2022-11-15T08:27:58;11.30;99.90
28524;DHT22;15734;50.904;6.922;2022-11-15T08:30:24;11.40;99.90
28524;DHT22;15734;50.904;6.922;2022-11-15T08:32:52;11.50;99.90
28524;DHT22;15734;50.904;6.922;2022-11-15T08:35:18;11.50;99.90
28524;DHT22;15734;50.904;6.922;2022-11-15T08:37:44;11.50;99.90
28524;DHT22;15734;50.904;6.922;2022-11-15T08:40:10;11.60;99.90
28524;DHT22;15734;50.904;6.922;2022-11-15T08:42:36;11.60;99.90
28524;DHT22;15734;50.904;6.922;2022-11-15T08:45:02;11.60;99.90
28524;DHT22;15734;50.904;6.922;2022-11-15T08:47:27;11.60;99.90
28524;DHT22;15734;50.904;6.922;2022-11-15T08:49:53;11.60;99.90
28524;DHT22;15734;50.904;6.922;2022-11-15T08:52:18;11.70;99.90
28524;DHT22;15734;50.904;6.922;2022-11-15T08:54:44;11.70;99.90
28524;DHT22;15734;50.904;6.922;2022-11-15T08:57:09;11.70;99.90
28524;DHT22;15734;50.904;6.922;2022-11-15T08:59:38;11.80;99.90
28524;DHT22;15734;50.904;6.922;2022-11-15T09:02:04;11.80;99.90
28524;DHT22;15734;50.904;6.922;2022-11-15T09:04:30;11.90;99.90
28524;DHT22;15734;50.904;6.922;2022-11-15T09:06:56;12.00;99.90
28524;DHT22;15734;50.904;6.922;2022-11-15T09:09:21;12.00;99.90
28524;DHT22;15734;50.904;6.922;2022-11-15T09:11:47;12.10;99.90
28524;DHT22;15734;50.904;6.922;2022-11-15T09:14:13;12.10;99.90
28524;DHT22;15734;50.904;6.922;2022-11-15T09:16:39;12.20;99.90
28524;DHT22;15734;50.904;6.922;2022-11-15T09:19:05;12.20;99.90
28524;DHT22;15734;50.904;6.922;2022-11-15T09:21:31;12.20;99.90
28524;DHT22;15734;50.904;6.922;2022-11-15T09:23:57;12.30;99.90
28524;DHT22;15734;50.904;6.922;2022-11-15T09:26:22;12.30;99.90
28524;DHT22;15734;50.904;6.922;2022-11-15T09:28:48;12.40;99.90
28524;DHT22;15734;50.904;6.922;2022-11-15T09:31:14;12.40;99.90
28524;DHT22;15734;50.904;6.922;2022-11-15T09:33:39;12.50;99.90
28524;DHT22;15734;50.904;6.922;2022-11-15T09:36:09;12.60;99.90
28524;DHT22;15734;50.904;6.922;2022-11-15T09:38:35;12.60;99.90
28524;DHT22;15734;50.904;6.922;2022-11-15T09:44:02;12.70;99.90
28524;DHT22;15734;50.904;6.922;2022-11-15T09:49:35;12.80;99.90
28524;DHT22;15734;50.904;6.922;2022-11-15T09:52:01;12.80;99.90
28524;DHT22;15734;50.904;6.922;2022-11-15T09:54:36;12.90;99.90
28524;DHT22;15734;50.904;6.922;2022-11-15T09:57:06;12.90;99.90
28524;DHT22;15734;50.904;6.922;2022-11-15T10:00:00;12.90;99.90
28524;DHT22;15734;50.904;6.922;2022-11-15T10:04:57;13.00;99.90
28524;DHT22;15734;50.904;6.922;2022-11-15T10:07:51;13.10;99.90
28524;DHT22;15734;50.904;6.922;2022-11-15T10:13:03;13.20;99.90
28524;DHT22;15734;50.904;6.922;2022-11-15T10:15:29;13.30;99.90
28524;DHT22;15734;50.904;6.922;2022-11-15T10:20:37;13.40;99.90
28524;DHT22;15734;50.904;6.922;2022-11-15T10:23:11;13.50;99.90
28524;DHT22;15734;50.904;6.922;2022-11-15T10:25:37;13.50;99.90
28524;DHT22;15734;50.904;6.922;2022-11-15T10:28:11;13.60;99.90
28524;DHT22;15734;50.904;6.922;2022-11-15T10:30:41;13.60;99.90
28524;DHT22;15734;50.904;6.922;2022-11-15T10:41:14;13.80;99.90
28524;DHT22;15734;50.904;6.922;2022-11-15T10:43:40;13.90;99.90
28524;DHT22;15734;50.904;6.922;2022-11-15T10:46:23;13.90;99.90
28524;DHT22;15734;50.904;6.922;2022-11-15T10:48:49;13.90;99.90
28524;DHT22;15734;50.904;6.922;2022-11-15T10:51:22;14.00;99.90
28524;DHT22;15734;50.904;6.922;2022-11-15T10:53:51;14.00;99.90
28524;DHT22;15734;50.904;6.922;2022-11-15T10:56:21;14.10;99.90
28524;DHT22;15734;50.904;6.922;2022-11-15T10:58:54;14.10;99.90
28524;DHT22;15734;50.904;6.922;2022-11-15T11:01:27;14.10;99.90
28524;DHT22;15734;50.904;6.922;2022-11-15T11:04:06;14.30;99.90
28524;DHT22;15734;50.904;6.922;2022-11-15T11:06:49;14.30;99.90
28524;DHT22;15734;50.904;6.922;2022-11-15T11:09:31;14.40;99.90
28524;DHT22;15734;50.904;6.922;2022-11-15T11:11:58;14.50;99.90
28524;DHT22;15734;50.904;6.922;2022-11-15T11:14:32;14.40;99.90
28524;DHT22;15734;50.904;6.922;2022-11-15T11:17:06;14.50;99.90
28524;DHT22;15734;50.904;6.922;2022-11-15T11:25:38;14.80;99.90
28524;DHT22;15734;50.904;6.922;2022-11-15T11:31:13;14.90;99.90
28524;DHT22;15734;50.904;6.922;2022-11-15T11:34:04;14.90;99.90
28524;DHT22;15734;50.904;6.922;2022-11-15T11:36:50;14.90;99.90
28524;DHT22;15734;50.904;6.922;2022-11-15T11:39:49;15.00;99.90
28524;DHT22;15734;50.904;6.922;2022-11-15T11:47:58;15.50;99.90
28524;DHT22;15734;50.904;6.922;2022-11-15T11:50:27;15.50;99.90
28524;DHT22;15734;50.904;6.922;2022-11-15T11:53:15;15.50;99.90
28524;DHT22;15734;50.904;6.922;2022-11-15T11:55:52;15.60;99.90
28524;DHT22;15734;50.904;6.922;2022-11-15T11:58:23;15.70;99.90
28524;DHT22;15734;50.904;6.922;2022-11-15T12:01:14;15.60;99.90
28524;DHT22;15734;50.904;6.922;2022-11-15T12:06:27;15.50;99.90
28524;DHT22;15734;50.904;6.922;2022-11-15T12:09:12;15.60;99.90
28524;DHT22;15734;50.904;6.922;2022-11-15T12:12:08;15.50;99.90
28524;DHT22;15734;50.904;6.922;2022-11-15T12:17:01;15.30;99.90
28524;DHT22;15734;50.904;6.922;2022-11-15T12:19:27;15.30;99.90
28524;DHT22;15734;50.904;6.922;2022-11-15T12:24:44;15.50;99.90
28524;DHT22;15734;50.904;6.922;2022-11-15T12:30:07;15.80;99.90
28524;DHT22;15734;50.904;6.922;2022-11-15T12:32:37;15.80;99.90
28524;DHT22;15734;50.904;6.922;2022-11-15T12:35:06;15.70;99.90
28524;DHT22;15734;50.904;6.922;2022-11-15T12:37:50;15.50;99.90
28524;DHT22;15734;50.904;6.922;2022-11-15T12:40:20;15.50;99.90
28524;DHT22;15734;50.904;6.922;2022-11-15T12:43:03;15.40;99.90
28524;DHT22;15734;50.904;6.922;2022-11-15T13:07:06;15.30;99.90
28524;DHT22;15734;50.904;6.922;2022-11-15T13:22:52;15.40;99.90
28524;DHT22;15734;50.904;6.922;2022-11-15T13:30:41;15.40;99.90
28524;DHT22;15734;50.904;6.922;2022-11-15T13:33:17;15.30;99.90
28524;DHT22;15734;50.904;6.922;2022-11-15T13:35:48;15.30;99.90
28524;DHT22;15734;50.904;6.922;2022-11-15T13:38:35;15.30;99.90
28524;DHT22;15734;50.904;6.922;2022-11-15T13:41:23;15.20;99.90
28524;DHT22;15734;50.904;6.922;2022-11-15T13:43:50;15.20;99.90
28524;DHT22;15734;50.904;6.922;2022-11-15T13:46:22;15.00;99.90
28524;DHT22;15734;50.904;6.922;2022-11-15T13:48:58;14.90;99.90
28524;DHT22;15734;50.904;6.922;2022-11-15T13:56:27;14.60;99.90
28524;DHT22;15734;50.904;6.922;2022-11-15T13:58:54;14.60;99.90
28524;DHT22;15734;50.904;6.922;2022-11-15T14:01:21;14.60;99.90
28524;DHT22;15734;50.904;6.922;2022-11-15T14:03:56;14.60;99.90
28524;DHT22;15734;50.904;6.922;2022-11-15T14:06:24;14.50;99.90
28524;DHT22;15734;50.904;6.922;2022-11-15T14:09:24;14.50;99.90
28524;DHT22;15734;50.904;6.922;2022-11-15T14:11:55;14.50;99.90
28524;DHT22;15734;50.904;6.922;2022-11-15T14:14:23;14.50;99.90
28524;DHT22;15734;50.904;6.922;2022-11-15T14:16:52;14.60;99.90
28524;DHT22;15734;50.904;6.922;2022-11-15T14:25:18;14.50;99.90
28524;DHT22;15734;50.904;6.922;2022-11-15T14:28:10;14.50;99.90
28524;DHT22;15734;50.904;6.922;2022-11-15T14:30:36;14.40;99.90
28524;DHT22;15734;50.904;6.922;2022-11-15T14:33:01;14.40;99.90
28524;DHT22;15734;50.904;6.922;2022-11-15T14:35:28;14.40;99.90
28524;DHT22;15734;50.904;6.922;2022-11-15T14:37:53;14.40;99.90
28524;DHT22;15734;50.904;6.922;2022-11-15T14:40:21;14.40;99.90
28524;DHT22;15734;50.904;6.922;2022-11-15T14:42:48;14.40;99.90
28524;DHT22;15734;50.904;6.922;2022-11-15T14:45:19;14.40;99.90
28524;DHT22;15734;50.904;6.922;2022-11-15T14:47:46;14.40;99.90
28524;DHT22;15734;50.904;6.922;2022-11-15T14:50:13;14.30;99.90
28524;DHT22;15734;50.904;6.922;2022-11-15T14:52:39;14.40;99.90
28524;DHT22;15734;50.904;6.922;2022-11-15T14:55:20;14.40;99.90
28524;DHT22;15734;50.904;6.922;2022-11-15T14:57:47;14.40;99.90
28524;DHT22;15734;50.904;6.922;2022-11-15T15:00:13;14.40;99.90
28524;DHT22;15734;50.904;6.922;2022-11-15T15:02:40;14.40;99.90
28524;DHT22;15734;50.904;6.922;2022-11-15T15:05:29;14.30;99.90
28524;DHT22;15734;50.904;6.922;2022-11-15T15:07:55;14.30;99.90
28524;DHT22;15734;50.904;6.922;2022-11-15T15:10:21;14.30;99.90
28524;DHT22;15734;50.904;6.922;2022-11-15T15:12:47;14.30;99.90
28524;DHT22;15734;50.904;6.922;2022-11-15T15:15:20;14.30;99.90
28524;DHT22;15734;50.904;6.922;2022-11-15T15:17:46;14.30;99.90
28524;DHT22;15734;50.904;6.922;2022-11-15T15:20:12;14.20;99.90
28524;DHT22;15734;50.904;6.922;2022-11-15T15:22:38;14.20;99.90
28524;DHT22;15734;50.904;6.922;2022-11-15T15:25:22;14.10;99.90
28524;DHT22;15734;50.904;6.922;2022-11-15T15:27:48;14.10;99.90
28524;DHT22;15734;50.904;6.922;2022-11-15T15:30:14;14.10;99.90
28524;DHT22;15734;50.904;6.922;2022-11-15T15:32:40;14.10;99.90
28524;DHT22;15734;50.904;6.922;2022-11-15T15:35:06;14.00;99.90
28524;DHT22;15734;50.904;6.922;2022-11-15T15:37:32;14.00;99.90
28524;DHT22;15734;50.904;6.922;2022-11-15T15:39:59;14.00;99.90
28524;DHT22;15734;50.904;6.922;2022-11-15T15:42:25;14.00;99.90
28524;DHT22;15734;50.904;6.922;2022-11-15T15:44:50;14.00;99.90
28524;DHT22;15734;50.904;6.922;2022-11-15T15:47:19;14.00;99.90
28524;DHT22;15734;50.904;6.922;2022-11-15T15:49:46;13.90;99.90
28524;DHT22;15734;50.904;6.922;2022-11-15T15:52:11;13.90;99.90
28524;DHT22;15734;50.904;6.922;2022-11-15T15:54:38;14.00;99.90
28524;DHT22;15734;50.904;6.922;2022-11-15T15:57:04;13.90;99.90
28524;DHT22;15734;50.904;6.922;2022-11-15T15:59:30;13.90;99.90
28524;DHT22;15734;50.904;6.922;2022-11-15T16:01:56;13.90;99.90
28524;DHT22;15734;50.904;6.922;2022-11-15T16:04:21;13.90;99.90
28524;DHT22;15734;50.904;6.922;2022-11-15T16:06:47;13.80;99.90
28524;DHT22;15734;50.904;6.922;2022-11-15T16:09:17;13.80;99.90
28524;DHT22;15734;50.904;6.922;2022-11-15T16:11:44;13.80;99.90
28524;DHT22;15734;50.904;6.922;2022-11-15T16:14:10;13.80;99.90
28524;DHT22;15734;50.904;6.922;2022-11-15T16:16:36;13.80;99.90
28524;DHT22;15734;50.904;6.922;2022-11-15T16:19:03;13.80;99.90
28524;DHT22;15734;50.904;6.922;2022-11-15T16:21:28;13.80;99.90
28524;DHT22;15734;50.904;6.922;2022-11-15T16:23:54;13.80;99.90
28524;DHT22;15734;50.904;6.922;2022-11-15T16:26:27;13.80;99.90
28524;DHT22;15734;50.904;6.922;2022-11-15T16:28:53;13.80;99.90
28524;DHT22;15734;50.904;6.922;2022-11-15T16:31:19;13.80;99.90
28524;DHT22;15734;50.904;6.922;2022-11-15T16:33:47;13.70;99.90
28524;DHT22;15734;50.904;6.922;2022-11-15T16:36:21;13.70;99.90
28524;DHT22;15734;50.904;6.922;2022-11-15T16:38:47;13.70;99.90
28524;DHT22;15734;50.904;6.922;2022-11-15T16:41:13;13.60;99.90
28524;DHT22;15734;50.904;6.922;2022-11-15T16:43:39;13.60;99.90
28524;DHT22;15734;50.904;6.922;2022-11-15T16:46:19;13.60;99.90
28524;DHT22;15734;50.904;6.922;2022-11-15T16:48:45;13.60;99.90
28524;DHT22;15734;50.904;6.922;2022-11-15T16:51:11;13.60;99.90
28524;DHT22;15734;50.904;6.922;2022-11-15T16:53:37;13.60;99.90
28524;DHT22;15734;50.904;6.922;2022-11-15T16:56:03;13.60;99.90
28524;DHT22;15734;50.904;6.922;2022-11-15T16:58:28;13.60;99.90
28524;DHT22;15734;50.904;6.922;2022-11-15T17:00:55;13.60;99.90
28524;DHT22;15734;50.904;6.922;2022-11-15T17:03:22;13.60;99.90
28524;DHT22;15734;50.904;6.922;2022-11-15T17:05:48;13.60;99.90
28524;DHT22;15734;50.904;6.922;2022-11-15T17:08:14;13.60;99.90
28524;DHT22;15734;50.904;6.922;2022-11-15T17:10:40;13.60;99.90
28524;DHT22;15734;50.904;6.922;2022-11-15T17:13:09;13.50;99.90
28524;DHT22;15734;50.904;6.922;2022-11-15T17:15:36;13.50;99.90
28524;DHT22;15734;50.904;6.922;2022-11-15T17:18:01;13.50;99.90
28524;DHT22;15734;50.904;6.922;2022-11-15T17:20:27;13.50;99.90
28524;DHT22;15734;50.904;6.922;2022-11-15T17:22:52;13.50;99.90
28524;DHT22;15734;50.904;6.922;2022-11-15T17:25:18;13.50;99.90
28524;DHT22;15734;50.904;6.922;2022-11-15T17:27:44;13.50;99.90
28524;DHT22;15734;50.904;6.922;2022-11-15T17:30:12;13.50;99.90
28524;DHT22;15734;50.904;6.922;2022-11-15T17:32:39;13.50;99.90
28524;DHT22;15734;50.904;6.922;2022-11-15T17:35:05;13.40;99.90
28524;DHT22;15734;50.904;6.922;2022-11-15T17:37:34;13.40;99.90
28524;DHT22;15734;50.904;6.922;2022-11-15T17:39:59;13.30;99.90
28524;DHT22;15734;50.904;6.922;2022-11-15T17:42:25;13.20;99.90
28524;DHT22;15734;50.904;6.922;2022-11-15T17:44:51;13.10;99.90
28524;DHT22;15734;50.904;6.922;2022-11-15T17:47:16;13.10;99.90